createdAt,value
2023-05-09T00:01:13.505Z,45.18
2023-05-09T00:02:17.862Z,45.27
2023-05-09T00:03:21.765Z,45.27
2023-05-09T00:04:25.825Z,45.33
2023-05-09T00:05:30.359Z,45.56
2023-05-09T00:06:33.131Z,45.68
2023-05-09T00:07:39.084Z,45.69
2023-05-09T00:08:42.430Z,45.97
2023-05-09T00:09:45.630Z,45.54
2023-05-09T00:10:47.982Z,45.84
2023-05-09T00:11:53.362Z,45.51
2023-05-09T00:12:57.486Z,45.64
2023-05-09T00:14:00.843Z,45.63
2023-05-09T00:15:04.818Z,45.55
2023-05-09T00:16:08.772Z,45.77
2023-05-09T00:17:13.459Z,45.95
2023-05-09T00:18:19.871Z,45.85
2023-05-09T00:19:23.324Z,45.84
2023-05-09T00:20:26.737Z,45.68
2023-05-09T00:21:32.009Z,45.62
2023-05-09T00:22:35.624Z,45.64
2023-05-09T00:23:39.436Z,45.90
2023-05-09T00:24:42.843Z,45.51
2023-05-09T00:25:46.450Z,45.41
2023-05-09T00:26:49.839Z,45.64
2023-05-09T00:27:56.310Z,45.47
2023-05-09T00:29:01.460Z,45.48
2023-05-09T00:30:09.017Z,45.57
2023-05-09T00:31:14.532Z,45.48
2023-05-09T00:32:17.974Z,45.40
2023-05-09T00:33:21.329Z,45.53
2023-05-09T00:34:24.414Z,45.70
2023-05-09T00:35:28.535Z,45.55
2023-05-09T00:36:32.990Z,45.57
2023-05-09T00:37:36.494Z,45.38
2023-05-09T00:38:40.880Z,45.79
2023-05-09T00:39:44.448Z,45.60
2023-05-09T00:40:47.901Z,45.53
2023-05-09T00:41:51.040Z,45.47
2023-05-09T00:42:56.631Z,45.83
2023-05-09T00:44:01.275Z,45.74
2023-05-09T00:45:07.501Z,45.48
2023-05-09T00:46:10.197Z,45.59
2023-05-09T00:47:13.459Z,45.75
2023-05-09T00:48:16.173Z,45.57
2023-05-09T00:49:22.458Z,45.67
2023-05-09T00:50:27.705Z,45.64
2023-05-09T00:51:33.148Z,45.63
2023-05-09T00:52:36.788Z,45.89
2023-05-09T00:53:40.981Z,45.85
2023-05-09T00:54:44.582Z,45.95
2023-05-09T00:55:46.944Z,45.92
2023-05-09T00:56:53.157Z,45.63
2023-05-09T00:57:56.667Z,45.76
2023-05-09T00:59:01.750Z,46.00
2023-05-09T01:00:05.660Z,45.93
2023-05-09T01:01:08.583Z,46.12
2023-05-09T01:02:11.589Z,46.01
2023-05-09T01:03:14.499Z,46.25
2023-05-09T01:04:18.439Z,46.18
2023-05-09T01:05:23.812Z,46.37
2023-05-09T01:06:32.436Z,46.36
2023-05-09T01:07:36.986Z,46.45
2023-05-09T01:09:01.483Z,46.30
2023-05-09T01:10:07.289Z,46.26
2023-05-09T01:11:13.844Z,46.29
2023-05-09T01:13:43.197Z,46.31
2023-05-09T01:14:48.470Z,46.59
2023-05-09T01:16:06.279Z,46.81
2023-05-09T01:17:14.891Z,46.57
2023-05-09T01:18:19.547Z,46.82
2023-05-09T01:19:42.053Z,46.88
2023-05-09T01:20:47.766Z,47.05
2023-05-09T01:21:52.971Z,47.02
2023-05-09T01:22:58.640Z,47.08
2023-05-09T01:24:24.596Z,46.94
2023-05-09T01:25:44.090Z,47.11
2023-05-09T01:27:13.431Z,47.05
2023-05-09T01:28:20.580Z,47.21
2023-05-09T01:29:40.983Z,47.27
2023-05-09T01:30:46.220Z,47.50
2023-05-09T01:31:49.981Z,47.31
2023-05-09T01:34:06.386Z,47.35
2023-05-09T01:35:10.844Z,47.59
2023-05-09T01:36:16.003Z,47.61
2023-05-09T01:37:21.323Z,47.71
2023-05-09T01:38:26.391Z,47.83
2023-05-09T01:39:29.820Z,47.69
2023-05-09T01:40:34.470Z,47.80
2023-05-09T01:41:38.558Z,48.00
2023-05-09T01:42:44.975Z,48.02
2023-05-09T01:43:50.305Z,47.96
2023-05-09T01:44:54.282Z,47.89
2023-05-09T01:46:00.319Z,47.77
2023-05-09T01:47:07.440Z,47.96
2023-05-09T01:48:11.794Z,47.97
2023-05-09T01:49:16.452Z,48.17
2023-05-09T01:50:19.536Z,48.25
2023-05-09T01:51:24.188Z,48.22
2023-05-09T01:52:28.327Z,48.65
2023-05-09T01:53:30.792Z,48.50
2023-05-09T01:54:36.274Z,48.56
2023-05-09T01:55:42.339Z,48.74
2023-05-09T01:56:47.150Z,48.98
2023-05-09T01:57:51.695Z,49.17
2023-05-09T01:58:56.144Z,49.21
2023-05-09T01:59:58.800Z,49.34
2023-05-09T02:01:05.250Z,49.27
2023-05-09T02:02:08.961Z,49.41
2023-05-09T02:03:13.188Z,49.88
2023-05-09T02:04:17.962Z,49.65
2023-05-09T02:05:22.287Z,49.82
2023-05-09T02:06:25.493Z,49.90
2023-05-09T02:07:31.283Z,49.91
2023-05-09T02:08:34.161Z,49.89
2023-05-09T02:09:37.603Z,50.03
2023-05-09T02:10:42.545Z,50.15
2023-05-09T02:11:46.450Z,49.95
2023-05-09T02:12:51.250Z,49.76
2023-05-09T02:13:54.712Z,50.19
2023-05-09T02:14:57.901Z,50.00
2023-05-09T02:16:01.516Z,50.15
2023-05-09T02:17:06.560Z,50.10
2023-05-09T02:18:11.239Z,50.30
2023-05-09T02:19:15.690Z,50.30
2023-05-09T02:20:19.114Z,50.19
2023-05-09T02:21:22.590Z,50.43
2023-05-09T02:22:25.897Z,50.54
2023-05-09T02:23:29.491Z,50.45
2023-05-09T02:24:34.666Z,50.35
2023-05-09T02:25:39.217Z,50.50
2023-05-09T02:26:43.045Z,50.43
2023-05-09T02:27:47.067Z,50.27
2023-05-09T02:28:50.781Z,50.10
2023-05-09T02:29:59.232Z,50.10
2023-05-09T02:31:05.752Z,49.99
2023-05-09T02:32:11.178Z,49.91
2023-05-09T02:33:15.120Z,49.98
2023-05-09T02:34:18.821Z,50.00
2023-05-09T02:35:23.506Z,49.96
2023-05-09T02:36:27.635Z,49.96
2023-05-09T02:37:31.880Z,50.36
2023-05-09T02:38:35.796Z,50.21
2023-05-09T02:39:42.540Z,50.24
2023-05-09T02:40:50.928Z,50.23
2023-05-09T02:41:56.561Z,50.39
2023-05-09T02:42:59.836Z,50.60
2023-05-09T02:44:06.790Z,50.27
2023-05-09T02:45:12.741Z,50.25
2023-05-09T02:46:16.407Z,50.10
2023-05-09T02:47:18.978Z,50.58
2023-05-09T02:48:22.591Z,50.20
2023-05-09T02:49:32.525Z,50.17
2023-05-09T02:50:32.317Z,50.24
2023-05-09T02:51:35.734Z,50.27
2023-05-09T02:52:39.631Z,50.07
2023-05-09T02:53:43.251Z,50.05
2023-05-09T02:54:47.486Z,50.40
2023-05-09T02:55:51.520Z,50.54
2023-05-09T02:56:53.797Z,50.27
2023-05-09T02:58:12.094Z,50.54
2023-05-09T02:59:06.407Z,50.35
2023-05-09T03:00:10.850Z,50.25
2023-05-09T03:01:17.448Z,50.42
2023-05-09T03:02:25.596Z,50.38
2023-05-09T03:03:28.948Z,50.33
2023-05-09T03:04:33.129Z,50.27
2023-05-09T03:05:36.673Z,50.57
2023-05-09T03:06:40.132Z,50.21
2023-05-09T03:07:47.612Z,50.49
2023-05-09T03:08:51.118Z,50.54
2023-05-09T03:09:55.136Z,50.68
2023-05-09T03:11:02.202Z,50.47
2023-05-09T03:12:06.741Z,50.31
2023-05-09T03:13:12.436Z,50.29
2023-05-09T03:14:16.373Z,50.38
2023-05-09T03:15:20.952Z,50.10
2023-05-09T03:16:25.713Z,50.24
2023-05-09T03:17:28.203Z,50.30
2023-05-09T03:18:32.169Z,50.39
2023-05-09T03:19:36.187Z,50.44
2023-05-09T03:20:39.818Z,50.70
2023-05-09T03:21:43.925Z,50.42
2023-05-09T03:22:49.115Z,50.48
2023-05-09T03:23:53.497Z,50.59
2023-05-09T03:24:57.060Z,50.43
2023-05-09T03:26:00.464Z,50.61
2023-05-09T03:27:04.398Z,50.57
2023-05-09T03:28:07.764Z,50.35
2023-05-09T03:29:12.757Z,50.31
2023-05-09T03:30:16.619Z,49.91
2023-05-09T03:31:20.842Z,49.87
2023-05-09T03:32:24.124Z,49.72
2023-05-09T03:33:26.871Z,49.67
2023-05-09T03:34:30.697Z,49.54
2023-05-09T03:35:34.525Z,49.88
2023-05-09T03:36:38.762Z,49.62
2023-05-09T03:37:42.418Z,49.66
2023-05-09T03:38:44.925Z,49.66
2023-05-09T03:39:47.753Z,49.35
2023-05-09T03:40:53.207Z,49.58
2023-05-09T03:41:57.596Z,49.38
2023-05-09T03:43:00.628Z,49.63
2023-05-09T03:44:04.590Z,50.17
2023-05-09T03:45:09.922Z,50.03
2023-05-09T03:46:14.509Z,49.71
2023-05-09T03:47:18.897Z,49.47
2023-05-09T03:48:22.241Z,49.25
2023-05-09T03:49:27.062Z,49.06
2023-05-09T03:50:29.947Z,48.86
2023-05-09T03:51:34.295Z,49.09
2023-05-09T03:52:38.740Z,48.86
2023-05-09T03:53:43.871Z,48.61
2023-05-09T03:54:47.110Z,48.08
2023-05-09T03:55:49.862Z,48.61
2023-05-09T03:56:53.491Z,48.45
2023-05-09T03:57:56.572Z,48.32
2023-05-09T03:58:59.866Z,48.17
2023-05-09T04:00:05.854Z,48.25
2023-05-09T04:01:11.367Z,48.25
2023-05-09T04:02:17.398Z,47.47
2023-05-09T04:03:21.485Z,47.17
2023-05-09T04:04:26.279Z,46.80
2023-05-09T04:05:28.846Z,46.52
2023-05-09T04:06:35.029Z,46.22
2023-05-09T04:07:39.299Z,46.09
2023-05-09T04:08:43.426Z,45.40
2023-05-09T04:09:47.251Z,45.13
2023-05-09T04:10:53.250Z,45.40
2023-05-09T04:11:56.251Z,45.97
2023-05-09T04:13:00.713Z,46.09
2023-05-09T04:14:05.854Z,46.55
2023-05-09T04:15:12.263Z,46.38
2023-05-09T04:16:17.539Z,46.36
2023-05-09T04:17:21.094Z,46.18
2023-05-09T04:18:28.128Z,46.00
2023-05-09T04:19:30.494Z,45.75
2023-05-09T04:20:34.201Z,45.90
2023-05-09T04:21:38.341Z,46.09
2023-05-09T04:22:42.820Z,46.00
2023-05-09T04:23:48.696Z,46.17
2023-05-09T04:24:54.256Z,46.32
2023-05-09T04:25:58.421Z,45.94
2023-05-09T04:27:01.609Z,45.76
2023-05-09T04:28:04.489Z,45.70
2023-05-09T04:29:08.000Z,45.46
2023-05-09T04:30:12.221Z,45.33
2023-05-09T04:31:15.187Z,45.48
2023-05-09T04:32:21.368Z,45.21
2023-05-09T04:33:27.341Z,45.60
2023-05-09T04:34:34.082Z,45.38
2023-05-09T04:35:40.412Z,45.03
2023-05-09T04:36:44.014Z,44.93
2023-05-09T04:37:47.620Z,45.02
2023-05-09T04:38:53.840Z,44.90
2023-05-09T04:40:00.277Z,44.23
2023-05-09T04:41:06.282Z,44.39
2023-05-09T04:42:09.629Z,44.10
2023-05-09T04:43:13.509Z,43.70
2023-05-09T04:44:18.474Z,43.59
2023-05-09T04:45:24.908Z,43.03
2023-05-09T04:46:29.226Z,42.90
2023-05-09T04:47:32.655Z,42.21
2023-05-09T04:48:35.526Z,41.00
2023-05-09T04:49:38.926Z,41.35
2023-05-09T04:50:42.432Z,41.66
2023-05-09T04:51:46.249Z,41.66
2023-05-09T04:52:49.753Z,41.97
2023-05-09T04:53:53.375Z,42.73
2023-05-09T04:54:58.113Z,41.10
2023-05-09T04:56:02.433Z,41.12
2023-05-09T04:57:17.469Z,40.69
2023-05-09T04:58:15.223Z,41.22
2023-05-09T04:59:19.135Z,41.07
2023-05-09T05:00:23.471Z,41.28
2023-05-09T05:01:27.358Z,41.49
2023-05-09T05:02:31.799Z,41.23
2023-05-09T05:03:36.253Z,40.53
2023-05-09T05:04:40.531Z,40.27
2023-05-09T05:05:43.808Z,40.23
2023-05-09T05:06:47.578Z,40.75
2023-05-09T05:07:49.987Z,40.93
2023-05-09T05:08:55.580Z,40.81
2023-05-09T05:10:00.157Z,40.30
2023-05-09T05:11:03.859Z,39.89
2023-05-09T05:12:10.490Z,40.12
2023-05-09T05:13:15.062Z,40.42
2023-05-09T05:14:27.885Z,40.30
2023-05-09T05:15:31.872Z,40.09
2023-05-09T05:16:35.785Z,39.59
2023-05-09T05:17:39.607Z,39.32
2023-05-09T05:18:43.852Z,38.83
2023-05-09T05:19:48.134Z,36.03
2023-05-09T05:20:51.976Z,34.78
2023-05-09T05:21:55.698Z,35.52
2023-05-09T05:23:00.486Z,36.06
2023-05-09T05:24:03.563Z,37.05
2023-05-09T05:25:08.005Z,38.22
2023-05-09T05:26:12.141Z,38.86
2023-05-09T05:27:15.228Z,38.81
2023-05-09T05:28:17.793Z,38.85
2023-05-09T05:29:21.081Z,37.70
2023-05-09T05:30:25.636Z,37.84
2023-05-09T05:31:29.181Z,37.04
2023-05-09T05:32:32.679Z,36.97
2023-05-09T05:33:37.614Z,36.44
2023-05-09T05:34:42.792Z,36.62
2023-05-09T05:35:46.078Z,36.04
2023-05-09T05:36:48.410Z,35.64
2023-05-09T05:37:55.178Z,33.12
2023-05-09T05:38:58.811Z,34.06
2023-05-09T05:40:02.945Z,34.22
2023-05-09T05:41:07.047Z,33.32
2023-05-09T05:42:11.897Z,34.25
2023-05-09T05:43:15.836Z,33.18
2023-05-09T05:44:21.778Z,31.06
2023-05-09T05:45:28.343Z,32.16
2023-05-09T05:46:33.659Z,32.24
2023-05-09T05:47:38.055Z,28.98
2023-05-09T05:48:49.620Z,27.79
2023-05-09T05:49:55.794Z,29.28
2023-05-09T05:50:58.936Z,30.21
2023-05-09T05:52:07.457Z,28.54
2023-05-09T05:53:12.717Z,28.15
2023-05-09T05:54:16.792Z,29.04
2023-05-09T05:55:21.071Z,30.89
2023-05-09T05:56:23.906Z,32.02
2023-05-09T05:57:27.476Z,32.77
2023-05-09T05:58:32.913Z,33.30
2023-05-09T05:59:39.878Z,33.02
2023-05-09T06:00:44.816Z,32.79
2023-05-09T06:01:49.323Z,32.45
2023-05-09T06:02:52.328Z,32.25
2023-05-09T06:04:00.855Z,30.90
2023-05-09T06:05:07.790Z,30.24
2023-05-09T06:06:12.669Z,29.98
2023-05-09T06:07:17.353Z,30.00
2023-05-09T06:08:22.203Z,30.98
2023-05-09T06:09:25.461Z,30.41
2023-05-09T06:10:30.163Z,29.78
2023-05-09T06:11:32.819Z,29.72
2023-05-09T06:12:36.213Z,29.15
2023-05-09T06:13:46.006Z,29.17
2023-05-09T06:14:49.125Z,28.48
2023-05-09T06:15:54.988Z,28.84
2023-05-09T06:16:58.235Z,27.74
2023-05-09T06:18:10.218Z,27.87
2023-05-09T06:19:13.855Z,28.38
2023-05-09T06:20:19.969Z,27.92
2023-05-09T06:21:23.377Z,28.00
2023-05-09T06:22:30.331Z,26.86
2023-05-09T06:23:33.838Z,26.10
2023-05-09T06:24:37.010Z,25.01
2023-05-09T06:25:43.395Z,25.64
2023-05-09T06:26:46.843Z,26.36
2023-05-09T06:27:50.757Z,27.42
2023-05-09T06:28:54.062Z,28.51
2023-05-09T06:29:57.791Z,29.01
2023-05-09T06:31:03.073Z,29.82
2023-05-09T06:32:06.572Z,29.45
2023-05-09T06:33:11.753Z,29.20
2023-05-09T06:34:16.486Z,29.16
2023-05-09T06:35:20.820Z,29.02
2023-05-09T06:36:24.146Z,28.71
2023-05-09T06:37:27.022Z,28.16
2023-05-09T06:38:30.622Z,28.00
2023-05-09T06:39:35.485Z,26.05
2023-05-09T06:40:39.104Z,25.37
2023-05-09T06:41:42.913Z,23.49
2023-05-09T06:42:45.397Z,22.41
2023-05-09T06:43:51.392Z,21.71
2023-05-09T06:44:54.937Z,21.67
2023-05-09T06:46:00.138Z,23.03
2023-05-09T06:47:03.716Z,24.04
2023-05-09T06:48:07.222Z,25.55
2023-05-09T06:49:11.628Z,26.20
2023-05-09T06:50:16.088Z,26.26
2023-05-09T06:51:19.481Z,25.70
2023-05-09T06:52:24.126Z,24.95
2023-05-09T06:53:27.544Z,25.33
2023-05-09T06:54:35.637Z,25.41
2023-05-09T06:55:40.084Z,25.15
2023-05-09T06:56:43.578Z,24.61
2023-05-09T06:57:46.860Z,23.88
2023-05-09T06:58:49.977Z,23.45
2023-05-09T06:59:53.112Z,22.75
2023-05-09T07:01:00.634Z,21.69
2023-05-09T07:02:04.291Z,20.15
2023-05-09T07:03:11.298Z,19.65
2023-05-09T07:04:18.149Z,19.58
2023-05-09T07:05:21.596Z,18.18
2023-05-09T07:06:25.370Z,18.67
2023-05-09T07:07:31.506Z,18.74
2023-05-09T07:08:34.879Z,18.00
2023-05-09T07:09:40.056Z,17.54
2023-05-09T07:10:44.611Z,17.40
2023-05-09T07:11:48.127Z,17.58
2023-05-09T07:12:51.528Z,17.65
2023-05-09T07:13:54.694Z,17.82
2023-05-09T07:14:58.112Z,19.34
2023-05-09T07:16:01.876Z,20.02
2023-05-09T07:17:21.182Z,20.00
2023-05-09T07:18:08.726Z,20.57
2023-05-09T07:19:14.113Z,21.28
2023-05-09T07:20:16.252Z,21.68
2023-05-09T07:21:18.621Z,21.73
2023-05-09T07:22:22.092Z,21.90
2023-05-09T07:23:29.221Z,20.98
2023-05-09T07:24:32.341Z,20.84
2023-05-09T07:25:35.759Z,20.12
2023-05-09T07:26:39.285Z,18.98
2023-05-09T07:27:43.091Z,18.12
2023-05-09T07:28:46.598Z,17.12
2023-05-09T07:29:51.641Z,17.77
2023-05-09T07:30:56.845Z,17.80
2023-05-09T07:32:00.281Z,17.71
2023-05-09T07:33:03.565Z,18.04
2023-05-09T07:34:07.155Z,17.71
2023-05-09T07:35:11.011Z,17.70
2023-05-09T07:36:18.342Z,18.62
2023-05-09T07:37:21.843Z,18.38
2023-05-09T07:38:25.029Z,17.44
2023-05-09T07:39:28.329Z,17.15
2023-05-09T07:40:39.255Z,17.15
2023-05-09T07:41:42.768Z,17.38
2023-05-09T07:42:50.129Z,17.58
2023-05-09T07:43:54.457Z,17.87
2023-05-09T07:44:59.365Z,18.43
2023-05-09T07:46:05.187Z,20.76
2023-05-09T07:47:10.598Z,22.32
2023-05-09T07:48:14.440Z,23.00
2023-05-09T07:49:16.791Z,24.02
2023-05-09T07:50:21.347Z,24.77
2023-05-09T07:51:24.881Z,25.19
2023-05-09T07:52:27.139Z,23.58
2023-05-09T07:53:30.603Z,21.09
2023-05-09T07:54:34.004Z,19.99
2023-05-09T07:55:37.188Z,19.58
2023-05-09T07:56:42.061Z,19.66
2023-05-09T07:57:45.244Z,20.86
2023-05-09T07:58:48.453Z,21.03
2023-05-09T07:59:52.059Z,22.05
2023-05-09T08:00:56.815Z,20.60
2023-05-09T08:01:59.582Z,19.88
2023-05-09T08:03:03.313Z,19.11
2023-05-09T08:04:09.174Z,18.46
2023-05-09T08:05:15.862Z,18.66
2023-05-09T08:06:22.217Z,19.26
2023-05-09T08:07:30.066Z,20.18
2023-05-09T08:08:34.398Z,21.24
2023-05-09T08:09:42.602Z,21.88
2023-05-09T08:10:48.615Z,22.40
2023-05-09T08:11:52.121Z,22.36
2023-05-09T08:12:55.679Z,22.42
2023-05-09T08:14:02.107Z,22.92
2023-05-09T08:15:07.739Z,23.33
2023-05-09T08:16:12.764Z,23.46
2023-05-09T08:17:16.912Z,23.44
2023-05-09T08:18:22.442Z,23.92
2023-05-09T08:19:25.636Z,23.75
2023-05-09T08:20:28.938Z,24.12
2023-05-09T08:21:38.509Z,23.56
2023-05-09T08:22:42.012Z,23.46
2023-05-09T08:23:45.824Z,23.19
2023-05-09T08:24:50.268Z,22.90
2023-05-09T08:25:55.250Z,22.33
2023-05-09T08:26:58.951Z,22.39
2023-05-09T08:28:02.665Z,21.89
2023-05-09T08:29:06.739Z,22.34
2023-05-09T08:30:12.290Z,22.30
2023-05-09T08:31:16.039Z,22.74
2023-05-09T08:33:32.317Z,22.13
2023-05-09T08:34:36.502Z,21.95
2023-05-09T08:35:39.932Z,21.90
2023-05-09T08:36:47.493Z,22.29
2023-05-09T08:37:50.708Z,21.53
2023-05-09T08:38:53.998Z,22.13
2023-05-09T08:39:56.579Z,21.67
2023-05-09T08:41:02.690Z,21.32
2023-05-09T08:42:05.669Z,21.03
2023-05-09T08:43:10.333Z,21.48
2023-05-09T08:44:14.651Z,21.50
2023-05-09T08:45:19.951Z,21.22
2023-05-09T08:46:25.487Z,20.90
2023-05-09T08:47:29.706Z,21.31
2023-05-09T08:48:35.925Z,21.63
2023-05-09T08:49:41.402Z,21.43
2023-05-09T08:50:45.425Z,21.39
2023-05-09T08:51:48.399Z,21.70
2023-05-09T08:52:52.508Z,21.42
2023-05-09T08:53:55.925Z,21.51
2023-05-09T08:54:59.005Z,22.13
2023-05-09T08:56:06.732Z,22.02
2023-05-09T08:57:10.624Z,22.51
2023-05-09T08:58:15.483Z,22.17
2023-05-09T08:59:18.433Z,22.58
2023-05-09T09:00:22.694Z,22.83
2023-05-09T09:01:28.559Z,22.93
2023-05-09T09:02:33.195Z,22.94
2023-05-09T09:03:39.210Z,23.11
2023-05-09T09:04:41.540Z,23.91
2023-05-09T09:05:44.647Z,23.80
2023-05-09T09:06:48.230Z,23.46
2023-05-09T09:07:52.138Z,23.80
2023-05-09T09:08:58.993Z,23.71
2023-05-09T09:10:03.956Z,23.73
2023-05-09T09:11:09.027Z,23.41
2023-05-09T09:12:13.098Z,22.98
2023-05-09T09:13:18.434Z,22.57
2023-05-09T09:14:25.069Z,22.23
2023-05-09T09:15:30.788Z,21.66
2023-05-09T09:16:35.246Z,20.93
2023-05-09T09:17:40.331Z,21.37
2023-05-09T09:18:46.933Z,21.27
2023-05-09T09:19:50.905Z,21.36
2023-05-09T09:20:56.222Z,22.02
2023-05-09T09:21:59.431Z,21.81
2023-05-09T09:23:07.185Z,22.02
2023-05-09T09:24:11.722Z,22.13
2023-05-09T09:25:15.701Z,21.74
2023-05-09T09:26:19.192Z,21.62
2023-05-09T09:27:21.657Z,21.86
2023-05-09T09:28:27.352Z,22.50
2023-05-09T09:29:32.963Z,21.68
2023-05-09T09:30:37.594Z,21.92
2023-05-09T09:31:42.693Z,22.42
2023-05-09T09:32:45.478Z,21.34
2023-05-09T09:33:49.371Z,21.29
2023-05-09T09:34:54.860Z,21.58
2023-05-09T09:35:58.401Z,21.33
2023-05-09T09:37:03.010Z,21.29
2023-05-09T09:38:07.149Z,22.04
2023-05-09T09:39:11.752Z,21.36
2023-05-09T09:40:19.748Z,21.45
2023-05-09T09:41:24.563Z,21.81
2023-05-09T09:42:27.856Z,22.10
2023-05-09T09:43:32.596Z,21.88
2023-05-09T09:44:35.844Z,22.38
2023-05-09T09:45:40.189Z,22.11
2023-05-09T09:46:52.810Z,22.15
2023-05-09T09:47:55.850Z,22.65
2023-05-09T09:48:59.724Z,22.01
2023-05-09T09:50:13.660Z,22.59
2023-05-09T09:51:18.989Z,22.77
2023-05-09T09:52:25.817Z,23.34
2023-05-09T09:53:30.184Z,22.99
2023-05-09T09:54:34.842Z,23.26
2023-05-09T09:55:37.905Z,22.74
2023-05-09T09:56:43.673Z,23.40
2023-05-09T09:57:50.075Z,23.71
2023-05-09T09:58:55.260Z,23.57
2023-05-09T09:59:59.445Z,23.22
2023-05-09T10:01:09.926Z,22.75
2023-05-09T10:02:12.745Z,23.08
2023-05-09T10:03:19.455Z,23.43
2023-05-09T10:04:23.085Z,22.89
2023-05-09T10:05:29.908Z,22.71
2023-05-09T10:06:32.686Z,22.99
2023-05-09T10:07:35.476Z,22.54
2023-05-09T10:08:39.207Z,22.15
2023-05-09T10:09:43.314Z,21.70
2023-05-09T10:10:46.819Z,20.89
2023-05-09T10:11:52.197Z,21.10
2023-05-09T10:12:59.768Z,21.29
2023-05-09T10:14:04.036Z,21.58
2023-05-09T10:15:09.439Z,20.92
2023-05-09T10:16:13.741Z,21.29
2023-05-09T10:17:18.459Z,21.10
2023-05-09T10:18:26.727Z,21.32
2023-05-09T10:19:33.422Z,21.11
2023-05-09T10:20:40.915Z,21.08
2023-05-09T10:21:47.415Z,21.64
2023-05-09T10:22:52.005Z,21.92
2023-05-09T10:23:57.594Z,21.76
2023-05-09T10:25:05.408Z,21.53
2023-05-09T10:26:22.871Z,21.94
2023-05-09T10:27:28.798Z,22.00
2023-05-09T10:28:34.315Z,22.15
2023-05-09T10:29:50.008Z,21.95
2023-05-09T10:30:59.846Z,21.79
2023-05-09T10:32:06.882Z,22.39
2023-05-09T10:33:14.114Z,21.89
2023-05-09T10:34:18.901Z,21.97
2023-05-09T10:35:24.351Z,21.99
2023-05-09T10:36:29.215Z,20.94
2023-05-09T10:37:33.560Z,21.23
2023-05-09T10:38:41.020Z,21.82
2023-05-09T10:39:45.997Z,21.65
2023-05-09T10:40:49.804Z,22.16
2023-05-09T10:41:53.517Z,22.09
2023-05-09T10:42:57.544Z,21.83
2023-05-09T10:44:02.143Z,22.44
2023-05-09T10:45:08.304Z,22.17
2023-05-09T10:46:13.834Z,22.28
2023-05-09T10:47:17.837Z,22.51
2023-05-09T10:48:22.495Z,22.58
2023-05-09T10:49:27.905Z,22.79
2023-05-09T10:50:31.850Z,22.06
2023-05-09T10:51:38.450Z,22.10
2023-05-09T10:53:03.780Z,21.84
2023-05-09T10:54:08.885Z,22.27
2023-05-09T10:55:12.031Z,21.91
2023-05-09T10:56:29.328Z,21.89
2023-05-09T10:57:34.012Z,21.77
2023-05-09T10:58:41.780Z,21.83
2023-05-09T10:59:47.162Z,21.67
2023-05-09T11:00:51.482Z,22.32
2023-05-09T11:01:56.724Z,21.64
2023-05-09T11:03:10.672Z,21.93
2023-05-09T11:04:17.369Z,22.05
2023-05-09T11:05:21.072Z,22.50
2023-05-09T11:06:46.722Z,23.01
2023-05-09T11:07:53.784Z,23.07
2023-05-09T11:08:57.290Z,23.24
2023-05-09T11:10:14.377Z,23.34
2023-05-09T11:11:19.870Z,23.55
2023-05-09T11:12:23.577Z,23.20
2023-05-09T11:13:28.268Z,23.11
2023-05-09T11:14:36.233Z,23.02
2023-05-09T11:15:56.882Z,23.26
2023-05-09T11:16:59.833Z,22.83
2023-05-09T11:18:06.696Z,23.92
2023-05-09T11:19:11.499Z,22.80
2023-05-09T11:20:17.070Z,22.87
2023-05-09T11:21:21.118Z,23.31
2023-05-09T11:22:26.876Z,22.47
2023-05-09T11:23:31.850Z,22.51
2023-05-09T11:24:36.633Z,23.18
2023-05-09T11:25:42.040Z,23.05
2023-05-09T11:26:48.948Z,23.13
2023-05-09T11:27:53.062Z,23.08
2023-05-09T11:28:57.520Z,23.26
2023-05-09T11:30:02.908Z,22.71
2023-05-09T11:31:10.178Z,22.55
2023-05-09T11:32:18.672Z,23.05
2023-05-09T11:33:33.953Z,23.32
2023-05-09T11:34:39.366Z,22.79
2023-05-09T11:35:44.540Z,23.05
2023-05-09T11:36:48.898Z,22.75
2023-05-09T11:38:02.117Z,22.99
2023-05-09T11:39:07.382Z,22.62
2023-05-09T11:40:14.398Z,22.77
2023-05-09T11:41:19.418Z,21.78
2023-05-09T11:42:24.596Z,22.36
2023-05-09T11:43:28.096Z,22.33
2023-05-09T11:44:33.989Z,22.29
2023-05-09T11:45:37.526Z,22.19
2023-05-09T11:46:41.008Z,22.25
2023-05-09T11:47:49.184Z,21.49
2023-05-09T11:48:52.722Z,22.04
2023-05-09T11:49:56.220Z,22.08
2023-05-09T11:50:59.740Z,23.05
2023-05-09T11:52:04.273Z,22.70
2023-05-09T11:53:10.471Z,22.56
2023-05-09T11:54:16.743Z,23.47
2023-05-09T11:55:24.509Z,22.62
2023-05-09T11:56:32.089Z,22.71
2023-05-09T11:57:36.221Z,22.20
2023-05-09T11:58:42.014Z,22.61
2023-05-09T11:59:47.543Z,22.92
2023-05-09T12:00:50.901Z,22.34
2023-05-09T12:01:56.099Z,22.33
2023-05-09T12:02:59.775Z,22.28
2023-05-09T12:04:08.604Z,23.02
2023-05-09T12:05:13.715Z,22.70
2023-05-09T12:06:20.073Z,22.58
2023-05-09T12:07:23.120Z,23.10
2023-05-09T12:08:27.771Z,22.96
2023-05-09T12:09:38.737Z,22.32
2023-05-09T12:10:45.514Z,22.59
2023-05-09T12:11:53.353Z,22.12
2023-05-09T12:12:57.788Z,22.34
2023-05-09T12:14:01.054Z,22.56
2023-05-09T12:15:08.707Z,22.50
2023-05-09T12:16:14.047Z,22.49
2023-05-09T12:17:18.478Z,22.82
2023-05-09T12:18:23.757Z,23.22
2023-05-09T12:19:27.466Z,23.32
2023-05-09T12:20:34.590Z,22.85
2023-05-09T12:21:40.526Z,22.62
2023-05-09T12:22:44.366Z,22.88
2023-05-09T12:23:50.991Z,22.76
2023-05-09T12:24:55.798Z,23.01
2023-05-09T12:26:00.192Z,22.40
2023-05-09T12:27:03.387Z,22.79
2023-05-09T12:28:06.876Z,22.51
2023-05-09T12:29:10.608Z,22.89
2023-05-09T12:30:15.530Z,22.11
2023-05-09T12:31:20.251Z,22.26
2023-05-09T12:32:23.730Z,21.63
2023-05-09T12:33:28.595Z,22.11
2023-05-09T12:34:33.822Z,22.46
2023-05-09T12:35:39.819Z,21.96
2023-05-09T12:36:51.320Z,22.62
2023-05-09T12:37:58.898Z,22.24
2023-05-09T12:39:02.291Z,22.83
2023-05-09T12:40:16.581Z,23.15
2023-05-09T12:42:31.088Z,22.93
2023-05-09T12:43:35.724Z,23.17
2023-05-09T12:44:39.158Z,23.51
2023-05-09T12:45:44.006Z,23.92
2023-05-09T12:46:57.471Z,24.25
2023-05-09T12:48:01.856Z,24.24
2023-05-09T12:49:04.979Z,24.30
2023-05-09T12:50:11.288Z,24.58
2023-05-09T12:51:16.568Z,24.49
2023-05-09T12:52:21.236Z,24.39
2023-05-09T12:53:28.657Z,24.91
2023-05-09T12:54:31.683Z,24.68
2023-05-09T12:55:36.809Z,24.43
2023-05-09T12:56:40.365Z,24.65
2023-05-09T12:57:44.822Z,24.40
2023-05-09T12:58:56.987Z,24.48
2023-05-09T13:00:01.791Z,24.79
2023-05-09T13:01:06.443Z,24.26
2023-05-09T13:02:13.245Z,24.45
2023-05-09T13:03:30.333Z,24.87
2023-05-09T13:04:34.669Z,24.00
2023-05-09T13:05:38.176Z,24.22
2023-05-09T13:06:51.400Z,24.29
2023-05-09T13:07:56.595Z,24.38
2023-05-09T13:09:00.109Z,23.83
2023-05-09T13:10:03.844Z,23.81
2023-05-09T13:12:17.919Z,24.20
2023-05-09T13:13:23.645Z,24.26
2023-05-09T13:14:26.548Z,23.88
2023-05-09T13:15:30.512Z,23.92
2023-05-09T13:16:33.889Z,23.70
2023-05-09T13:17:37.421Z,23.76
2023-05-09T13:18:42.585Z,23.98
2023-05-09T13:19:47.662Z,23.72
2023-05-09T13:20:52.210Z,23.79
2023-05-09T13:21:58.022Z,23.15
2023-05-09T13:23:03.128Z,22.94
2023-05-09T13:24:07.711Z,22.60
2023-05-09T13:25:12.183Z,22.84
2023-05-09T13:26:14.915Z,22.54
2023-05-09T13:27:18.250Z,22.86
2023-05-09T13:28:23.960Z,22.80
2023-05-09T13:29:30.812Z,23.42
2023-05-09T13:30:34.148Z,23.53
2023-05-09T13:31:40.426Z,23.70
2023-05-09T13:32:43.116Z,23.67
2023-05-09T13:33:48.710Z,24.53
2023-05-09T13:34:52.378Z,24.34
2023-05-09T13:35:56.033Z,23.70
2023-05-09T13:36:59.733Z,23.82
2023-05-09T13:38:04.476Z,23.73
2023-05-09T13:39:09.659Z,23.42
2023-05-09T13:40:14.056Z,23.12
2023-05-09T13:41:19.392Z,24.12
2023-05-09T13:42:23.989Z,23.82
2023-05-09T13:43:28.068Z,23.42
2023-05-09T13:44:30.519Z,23.78
2023-05-09T13:45:33.919Z,23.72
2023-05-09T13:46:37.961Z,23.54
2023-05-09T13:47:42.131Z,23.53
2023-05-09T13:48:47.264Z,24.20
2023-05-09T13:49:50.998Z,24.10
2023-05-09T13:50:54.371Z,23.97
2023-05-09T13:51:57.062Z,24.40
2023-05-09T13:53:00.672Z,23.89
2023-05-09T13:54:05.520Z,24.21
2023-05-09T13:55:10.276Z,24.69
2023-05-09T13:56:14.620Z,24.41
2023-05-09T13:57:17.809Z,24.33
2023-05-09T13:58:23.514Z,24.18
2023-05-09T13:59:25.954Z,24.81
2023-05-09T14:00:28.642Z,24.69
2023-05-09T14:01:32.083Z,24.81
2023-05-09T14:02:35.583Z,24.62
2023-05-09T14:03:39.190Z,24.51
2023-05-09T14:04:41.615Z,24.72